Flight Track Log - Related Links

Times and Time Zones

All times are in EDT time to prevent confusion due to time zone crossing. See the AAR214 flight status page for this flight to view local times or setup timezone preferences in your user account.

Time Position Orientation Groundspeed Altitude Reporting Facility
EDT Latitude Longitude Course Direction KTS MPH feet Rate Location/Type
Sun 04:09:00 37.8272 126.9664 49° Northeast  Level FlightAware Approximate
Sun 04:10:00 37.9164 127.0961 49° Northeast  Level FlightAware Approximate
Sun 04:10:28 37.4540 126.1550 49° Northeast 293 337 10,600  Level FlightAware ADS-B
Sun 04:11:00 38.0055 127.2262 49° Northeast  Level FlightAware Approximate
Sun 04:11:08 37.4080 126.1380 196° South 303 349 10,800  Level FlightAware ADS-B
Sun 04:12:38 37.3270 126.3330 118° Southeast 13,500 1,776 Climbing FlightAware ADS-B
Sun 04:13:13 37.3260 126.4100 91° East 414 476 14,500 1,950 Climbing FlightAware ADS-B
Sun 04:13:58 37.3250 126.5240 91° East 421 484 16,100 1,929 Climbing FlightAware ADS-B
Sun 04:14:37 37.3230 126.6180 92° East 429 494 17,200 1,600 Climbing FlightAware ADS-B
Sun 04:15:13 37.3220 126.6980 91° East 434 499 18,100 1,606 Climbing FlightAware ADS-B
Sun 04:15:48 37.3210 126.7940 91° East 440 506 19,100 1,714 Climbing FlightAware ADS-B
Sun 04:16:23 37.3200 126.8910 91° East 446 513 20,100 1,886 Climbing FlightAware ADS-B
Sun 04:16:58 37.3230 126.9760 87° East 438 504 21,300 1,852 Climbing FlightAware ADS-B
Sun 04:17:44 37.3160 127.0940 94° East 435 501 22,600 1,579 Climbing FlightAware ADS-B
Sun 04:18:14 37.3040 127.1690 101° East 438 504 23,300 1,385 Climbing FlightAware ADS-B
Sun 04:18:49 37.2910 127.2580 100° East 439 505 24,100 1,543 Climbing FlightAware ADS-B
Sun 04:19:24 37.2780 127.3440 101° East 433 498 25,100 1,521 Climbing FlightAware ADS-B
Sun 04:20:00 37.2650 127.4320 100° East 431 496 25,900 1,268 Climbing FlightAware ADS-B
Sun 04:20:35 37.2530 127.5210 100° East 431 496 26,600 1,114 Climbing FlightAware ADS-B
Sun 04:21:10 37.2410 127.6070 100° East 433 498 27,200 960 Climbing FlightAware ADS-B
Sun 04:21:50 37.2280 127.7060 99° East 438 504 27,800 947 Climbing FlightAware ADS-B
Sun 04:22:26 37.2170 127.7940 99° East 438 504 28,400 571 Climbing FlightAware ADS-B
Sun 04:23:14 37.2010 127.9020 101° East 440 506 28,600 143 Climbing FlightAware ADS-B
Sun 04:23:50 37.1900 127.9790 100° East 440 506 28,600 228 Level FlightAware ADS-B
Sun 04:26:00 37.3825 128.2587 49° Northeast  Level Estimated
Sun 04:27:00 37.4711 128.3883 49° Northeast  Level Estimated
Sun 04:28:00 37.5596 128.5182 49° Northeast  Level Estimated
Sun 04:29:00 37.6480 128.6484 49° Northeast  Level Estimated
Sun 04:30:00 37.7362 128.7789 49° Northeast  Level Estimated
Sun 04:31:00 37.8242 128.9097 50° Northeast  Level Estimated
Sun 04:32:00 37.9121 129.0408 50° Northeast  Level Estimated
Sun 04:33:00 37.9999 129.1722 50° Northeast  Level Estimated
Sun 04:34:00 38.0875 129.3040 50° Northeast  Level Estimated
Sun 04:35:00 38.1750 129.4361 50° Northeast  Level Estimated
Sun 04:36:00 38.2623 129.5685 50° Northeast  Level Estimated
Sun 04:37:00 38.3495 129.7012 50° Northeast  Level Estimated
Sun 04:38:00 38.4365 129.8342 50° Northeast  Level Estimated
Sun 04:39:00 38.5233 129.9675 50° Northeast  Level Estimated
Sun 04:40:00 38.6101 130.1012 50° Northeast  Level Estimated
Sun 04:41:00 38.6966 130.2352 50° Northeast  Level Estimated
Sun 04:42:00 38.7831 130.3695 50° Northeast  Level Estimated
Sun 04:42:32 36.4510 131.1320 50° Northeast 518 596 33,000  Level FlightAware ADS-B
Sun 04:43:08 36.4240 131.2350 108° East 516 594 33,000  Level FlightAware ADS-B
Sun 04:43:42 36.3980 131.3340 108° East 512 589 33,000  Level FlightAware ADS-B
Sun 04:44:19 36.3760 131.4220 107° East 512 589 33,000  Level FlightAware ADS-B
Sun 04:44:55 36.3550 131.5080 107° East 512 589 33,000  Level FlightAware ADS-B
Sun 04:45:13 36.3680 131.5910 79° East 513 590 33,000  Level FlightAware ADS-B
Sun 04:45:50 36.3650 131.6960 92° East 512 589 33,000  Level FlightAware ADS-B
Sun 04:46:19 36.3620 131.7830 92° East 512 589 33,000  Level FlightAware ADS-B
Sun 04:47:03 36.3590 131.8980 92° East 512 589 33,000  Level FlightAware ADS-B
Sun 04:47:38 36.3540 132.0190 93° East 509 586 33,000  Level FlightAware ADS-B
Sun 04:48:13 36.3510 132.1210 92° East 508 585 33,000  Level FlightAware ADS-B
Sun 04:48:48 36.3470 132.2210 93° East 507 583 33,000  Level FlightAware ADS-B
Sun 04:49:23 36.3440 132.3230 92° East 507 583 33,000  Level FlightAware ADS-B
Sun 04:49:58 36.3400 132.4250 93° East 507 583 33,000  Level FlightAware ADS-B
Sun 04:50:36 36.3380 132.5190 91° East 507 583 33,000  Level FlightAware ADS-B
Sun 04:51:08 36.3320 132.6270 94° East 506 582 33,000  Level FlightAware ADS-B
Sun 04:51:43 36.3280 132.7300 93° East 508 585 33,000  Level FlightAware ADS-B
Sun 04:52:23 36.3230 132.8460 93° East 509 586 33,000  Level FlightAware ADS-B
Sun 04:52:53 36.3200 132.9280 93° East 510 587 33,000  Level FlightAware ADS-B
Sun 04:53:33 36.3140 133.0500 93° East 510 587 33,000  Level FlightAware ADS-B
Sun 04:54:03 36.3110 133.1370 92° East 510 587 33,000  Level FlightAware ADS-B
Sun 04:54:38 36.3070 133.2360 93° East 510 587 33,000  Level FlightAware ADS-B
Sun 04:55:13 36.3060 133.3410 91° East 510 587 33,000  Level FlightAware ADS-B
Sun 04:55:48 36.3090 133.4420 88° East 509 586 33,000  Level FlightAware ADS-B
Sun 04:56:28 36.3130 133.5600 88° East 509 586 33,000  Level FlightAware ADS-B
Sun 04:57:07 36.3180 133.6770 87° East 509 586 33,000  Level FlightAware ADS-B
Sun 04:57:42 36.3220 133.7750 87° East 508 585 33,000  Level FlightAware ADS-B
Sun 04:58:23 36.3270 133.8960 87° East 508 585 33,000  Level FlightAware ADS-B
Sun 04:59:02 36.3320 134.0050 87° East 507 583 33,000  Level FlightAware ADS-B
Sun 04:59:32 36.3350 134.0920 88° East 507 583 33,000  Level FlightAware ADS-B
Sun 05:00:24 36.3410 134.2310 87° East 506 582 33,000  Level FlightAware ADS-B
Sun 05:01:02 36.3450 134.3560 88° East 504 580 33,000  Level FlightAware ADS-B
Sun 05:01:37 36.3480 134.4570 88° East 506 582 33,000  Level FlightAware ADS-B
Sun 05:02:18 36.3520 134.5750 88° East 506 582 33,000  Level FlightAware ADS-B
Sun 05:02:47 36.3540 134.6600 88° East 506 582 33,000  Level FlightAware ADS-B
Sun 05:04:08 36.3610 134.8850 88° East 506 582 33,000  Level FlightAware ADS-B
Sun 05:04:42 36.3640 134.9900 88° East 507 583 33,000  Level FlightAware ADS-B
Sun 05:05:19 36.3670 135.0960 88° East 507 583 33,000  Level FlightAware ADS-B
Sun 05:05:57 36.3700 135.2100 88° East 507 583 33,000  Level FlightAware ADS-B
Sun 05:06:32 36.3730 135.3140 88° East 508 585 33,000  Level FlightAware ADS-B
Sun 05:07:02 36.3750 135.4000 88° East 508 585 33,000  Level FlightAware ADS-B
Sun 05:07:37 36.3780 135.4950 88° East 508 585 33,000  Level FlightAware ADS-B
Sun 05:08:12 36.3800 135.6050 89° East 510 587 33,000  Level FlightAware ADS-B
Sun 05:08:49 36.3830 135.7030 88° East 511 588 33,000  Level FlightAware ADS-B
Sun 05:09:23 36.3850 135.8100 89° East 512 589 33,000  Level FlightAware ADS-B
Sun 05:09:57 36.3870 135.9090 89° East 514 592 33,000  Level FlightAware ADS-B
Sun 05:10:37 36.3900 136.0270 88° East 516 594 33,000  Level FlightAware ADS-B
Sun 05:11:02 36.3910 136.1020 89° East 516 594 33,000  Level FlightAware ADS-B
Sun 05:11:44 36.3930 136.2190 89° East 516 594 33,000  Level FlightAware ADS-B
Sun 05:12:18 36.3950 136.3220 89° East 515 593 33,000  Level FlightAware ADS-B
Sun 05:12:52 36.4000 136.4250 87° East 515 593 33,000  Level FlightAware ADS-B
Sun 05:13:27 36.4090 136.5280 84° East 515 593 33,000  Level FlightAware ADS-B
Sun 05:14:05 36.4200 136.6290 82° East 515 593 33,000  Level FlightAware ADS-B
Sun 05:14:38 36.4300 136.7330 83° East 514 592 33,000  Level FlightAware ADS-B
Sun 05:15:12 36.4410 136.8350 82° East 514 592 33,000  Level FlightAware ADS-B
Sun 05:15:53 36.4530 136.9510 83° East 513 590 33,000  Level FlightAware ADS-B
Sun 05:16:23 36.4650 137.0390 80° East 510 587 33,000  Level FlightAware ADS-B
Sun 05:16:58 36.4980 137.1290 65° Northeast 506 582 33,000  Level FlightAware ADS-B
Sun 05:17:35 36.5530 137.2220 54° Northeast 511 588 33,000  Level FlightAware ADS-B
Sun 05:18:10 36.6000 137.3030 54° Northeast 512 589 33,000  Level FlightAware ADS-B
Sun 05:18:30 36.6260 137.3560 59° Northeast 515 593 33,000  Level FlightAware ADS-B
Sun 05:19:00 36.6460 137.4400 73° East 518 596 33,000  Level FlightAware ADS-B
Sun 05:19:40 36.6530 137.5590 86° East 519 597 33,000  Level FlightAware ADS-B
Sun 05:20:15 36.6580 137.6610 86° East 520 598 33,000  Level FlightAware ADS-B
Sun 05:20:50 36.6620 137.7670 87° East 521 600 33,000  Level FlightAware ADS-B
Sun 05:21:25 36.6660 137.8710 87° East 522 601 33,000  Level FlightAware ADS-B
Sun 05:22:00 36.6710 137.9780 87° East 523 602 33,000  Level FlightAware ADS-B
Sun 05:22:36 36.6750 138.0820 87° East 522 601 33,000  Level FlightAware ADS-B
Sun 05:23:10 36.6790 138.1870 87° East 522 601 33,000  Level FlightAware ADS-B
Sun 05:23:45 36.6830 138.2900 87° East 522 601 33,000  Level FlightAware ADS-B
Sun 05:24:20 36.6870 138.3920 87° East 523 602 33,000  Level FlightAware ADS-B
Sun 05:24:55 36.6910 138.4890 87° East 524 603 33,000  Level FlightAware ADS-B
Sun 05:25:30 36.6950 138.6050 88° East 524 603 33,000  Level FlightAware ADS-B
Sun 05:26:05 36.6990 138.7050 87° East 524 603 33,000  Level FlightAware ADS-B
Sun 05:26:40 36.7020 138.8180 88° East 524 603 33,000  Level FlightAware ADS-B
Sun 05:27:15 36.7060 138.9180 87° East 524 603 33,000  Level FlightAware ADS-B
Sun 05:27:50 36.7090 139.0290 88° East 524 603 33,000  Level FlightAware ADS-B
Sun 05:28:25 36.7130 139.1300 87° East 524 603 33,000  Level FlightAware ADS-B
Sun 05:29:01 36.7160 139.2420 88° East 523 602 33,000  Level FlightAware ADS-B
Sun 05:29:36 36.7190 139.3480 88° East 519 597 33,000  Level FlightAware ADS-B
Sun 05:30:12 36.7220 139.4540 88° East 509 586 33,000  Level FlightAware ADS-B
Sun 05:30:45 36.7250 139.5470 88° East 508 585 33,000  Level FlightAware ADS-B
Sun 05:31:21 36.7280 139.6520 88° East 510 587 33,000  Level FlightAware ADS-B
Sun 05:31:57 36.7310 139.7630 88° East 511 588 33,000  Level FlightAware ADS-B
Sun 05:32:33 36.7330 139.8660 89° East 511 588 33,000  Level FlightAware ADS-B
Sun 05:33:05 36.7360 139.9620 88° East 512 589 33,000  Level FlightAware ADS-B
Sun 05:33:44 36.7380 140.0740 89° East 513 590 33,000  Level FlightAware ADS-B
Sun 05:34:17 36.7410 140.1750 88° East 513 590 33,000  Level FlightAware ADS-B
Sun 05:34:53 36.7430 140.2810 89° East 514 592 33,000  Level FlightAware ADS-B
Sun 05:35:25 36.7470 140.3740 87° East 513 590 33,000  Level FlightAware ADS-B
Sun 05:36:01 36.7550 140.4800 85° East 513 590 33,000  Level FlightAware ADS-B
Sun 05:36:33 36.7640 140.5760 83° East 513 590 33,000  Level FlightAware ADS-B
Sun 05:37:13 36.7740 140.6940 84° East 515 593 33,000  Level FlightAware ADS-B
Sun 05:37:45 36.7810 140.7850 84° East 515 593 33,000  Level FlightAware ADS-B
Sun 05:38:21 36.7900 140.8900 84° East 516 594 33,000  Level FlightAware ADS-B
Sun 05:38:55 36.7990 140.9950 84° East 516 594 33,000  Level FlightAware ADS-B
Sun 05:39:31 36.8070 141.0980 84° East 517 595 33,000  Level FlightAware ADS-B
Sun 05:40:07 36.8160 141.2070 84° East 516 594 33,000  Level FlightAware ADS-B
Sun 05:40:42 36.8240 141.3090 84° East 516 594 33,000  Level FlightAware ADS-B
Sun 05:41:22 36.8330 141.4230 84° East 515 593 33,000  Level FlightAware ADS-B
Sun 05:41:56 36.8400 141.5150 85° East 515 593 33,000  Level FlightAware ADS-B
Sun 05:42:33 36.8490 141.6330 85° East 515 593 33,000  Level FlightAware ADS-B
Sun 05:43:13 36.8580 141.7520 85° East 515 593 33,000  Level FlightAware ADS-B
Sun 05:43:49 36.8660 141.8580 85° East 516 594 33,000  Level FlightAware ADS-B
Sun 05:44:28 36.8740 141.9730 85° East 517 595 33,000  Level FlightAware ADS-B
Sun 05:45:21 36.8850 142.1320 85° East 518 596 33,000  Level FlightAware ADS-B
Sun 05:46:01 36.8940 142.2490 84° East 518 596 33,000  Level FlightAware ADS-B
Sun 05:46:32 36.8990 142.3290 86° East 518 596 33,000  Level FlightAware ADS-B
Sun 05:47:22 36.9100 142.4910 85° East 517 595 33,000  Level FlightAware ADS-B
Sun 05:47:55 36.9170 142.5860 85° East 517 595 33,000  Level FlightAware ADS-B
Sun 05:48:27 36.9230 142.6790 85° East 517 595 33,000  Level FlightAware ADS-B
Sun 05:49:20 36.9330 142.8250 85° East 516 594 33,000  Level FlightAware ADS-B
Sun 05:49:54 36.9400 142.9350 85° East 515 593 33,000  Level FlightAware ADS-B
Sun 05:50:24 36.9450 143.0210 86° East 515 593 33,000  Level FlightAware ADS-B
Sun 05:51:24 36.9490 143.0840 85° East 514 592 33,000  Level FlightAware ADS-B
Sun 05:52:21 36.9660 143.3610 86° East 513 590 33,000  Level FlightAware ADS-B
Sun 05:52:57 36.9710 143.4520 86° East 513 590 33,000  Level FlightAware ADS-B
Sun 05:53:33 36.9760 143.5420 86° East 513 590 33,000  Level FlightAware ADS-B
Sun 05:54:09 36.9810 143.6330 86° East 513 590 33,000  Level FlightAware ADS-B
Sun 05:54:45 36.9860 143.7240 86° East 513 590 33,000  Level FlightAware ADS-B
Sun 05:55:21 36.9910 143.8140 86° East 513 590 33,000  Level FlightAware ADS-B
Sun 05:55:57 36.9960 143.9050 86° East 513 590 33,000  Level FlightAware ADS-B
Sun 05:58:00 37.1483 144.1971 57° Northeast  Level Estimated
Sun 05:59:00 37.2224 144.3400 57° Northeast  Level Estimated
Sun 06:00:00 37.2963 144.4831 57° Northeast  Level Estimated
Sun 06:01:00 37.3700 144.6266 57° Northeast  Level Estimated
Sun 06:01:35 37.1210 144.9880 57° Northeast 506 582 33,000  Level FlightAware ADS-B
Sun 06:02:10 37.1320 145.0830 82° East 507 583 33,000  Level FlightAware ADS-B
Sun 06:02:47 37.1430 145.1740 81° East 507 583 33,000  Level FlightAware ADS-B
Sun 06:03:25 37.1580 145.3110 82° East 508 585 33,000  Level FlightAware ADS-B
Sun 06:04:03 37.1690 145.4040 82° East 508 585 33,000  Level FlightAware ADS-B
Sun 06:04:55 37.1850 145.5520 82° East 508 585 33,000  Level FlightAware ADS-B
Sun 06:05:47 37.2030 145.7060 82° East 508 585 33,000  Level FlightAware ADS-B
Sun 06:06:23 37.2130 145.7960 82° East 508 585 33,000  Level FlightAware ADS-B
Sun 06:06:59 37.2230 145.8850 82° East 508 585 33,000  Level FlightAware ADS-B
Sun 06:07:35 37.2330 145.9750 82° East 508 585 33,000  Level FlightAware ADS-B
Sun 06:08:11 37.2430 146.0640 82° East 508 585 33,000  Level FlightAware ADS-B
Sun 06:08:47 37.2530 146.1540 82° East 508 585 33,000  Level FlightAware ADS-B
Sun 06:09:23 37.2630 146.2430 82° East 508 585 33,000  Level FlightAware ADS-B
Sun 06:09:59 37.2730 146.3330 82° East 508 585 33,000  Level FlightAware ADS-B
Sun 06:10:35 37.2830 146.4220 82° East 508 585 33,000  Level FlightAware ADS-B
Sun 06:11:16 37.2940 146.5240 82° East 508 585 33,000  Level FlightAware ADS-B
Sun 06:11:52 37.3040 146.6140 82° East 508 585 33,000  Level FlightAware ADS-B
Sun 06:12:23 37.3130 146.6910 82° East 508 585 33,000  Level FlightAware ADS-B
Sun 06:13:00 37.3230 146.7830 82° East 508 585 33,000  Level FlightAware ADS-B
Sun 06:13:36 37.3330 146.8720 82° East 508 585 33,000  Level FlightAware ADS-B
Sun 06:14:12 37.3430 146.9620 82° East 508 585 33,000  Level FlightAware ADS-B
Sun 06:14:48 37.3530 147.0520 82° East 508 585 33,000 23 Level FlightAware ADS-B
Sun 06:17:00 37.5098 147.3723 58° Northeast  Level Estimated
Sun 06:18:00 37.5807 147.5183 58° Northeast  Level Estimated
Sun 06:19:00 37.6515 147.6647 59° Northeast  Level Estimated
Sun 06:20:00 37.7221 147.8112 59° Northeast  Level Estimated
Sun 06:21:00 37.7926 147.9581 59° Northeast  Level Estimated
Sun 06:22:00 37.8628 148.1053 59° Northeast  Level Estimated
Sun 06:23:00 37.9329 148.2527 59° Northeast  Level Estimated
Sun 06:24:00 38.0027 148.4004 59° Northeast  Level Estimated
Sun 06:25:00 38.0724 148.5484 59° Northeast  Level Estimated
Sun 06:26:00 38.1419 148.6967 59° Northeast  Level Estimated
Sun 06:27:00 38.2113 148.8452 59° Northeast  Level Estimated
Sun 06:28:00 38.2804 148.9941 59° Northeast  Level Estimated
Sun 06:29:00 38.3493 149.1432 59° Northeast  Level Estimated
Sun 06:30:00 38.4181 149.2926 60° Northeast  Level Estimated
Sun 06:31:00 38.4866 149.4423 60° Northeast  Level Estimated
Sun 06:32:00 38.5550 149.5923 60° Northeast  Level Estimated
Sun 06:33:00 38.6232 149.7425 60° Northeast  Level Estimated
Sun 06:34:00 38.6912 149.8931 60° Northeast  Level Estimated
Sun 06:35:00 38.7590 150.0439 60° Northeast  Level Estimated
Sun 06:36:00 38.8266 150.1950 60° Northeast  Level Estimated
Sun 06:37:00 38.8940 150.3465 60° Northeast  Level Estimated
Sun 06:38:00 38.9612 150.4982 60° Northeast  Level Estimated
Sun 06:39:00 39.0282 150.6501 60° Northeast  Level Estimated
Sun 06:40:00 39.0950 150.8024 60° Northeast  Level Estimated
Sun 06:41:00 39.1616 150.9550 61° Northeast  Level Estimated
Sun 06:42:00 39.2280 151.1078 61° Northeast  Level Estimated
Sun 06:43:00 39.2943 151.2610 61° Northeast  Level Estimated
Sun 06:44:00 39.3603 151.4144 61° Northeast  Level Estimated
Sun 06:45:00 39.4261 151.5681 61° Northeast  Level Estimated
Sun 06:46:00 39.4917 151.7221 61° Northeast  Level Estimated
Sun 06:47:00 39.5571 151.8764 61° Northeast  Level Estimated
Sun 06:48:00 39.6451 152.0852 61° Northeast  Level Estimated
Sun 06:49:00 39.7327 152.2946 61° Northeast  Level Estimated
Sun 06:50:00 39.8200 152.5045 62° Northeast  Level Estimated
Sun 06:51:00 39.9069 152.7149 62° Northeast  Level Estimated
Sun 06:52:00 39.9934 152.9259 62° Northeast  Level Estimated
Sun 06:53:00 40.0795 153.1374 62° Northeast  Level Estimated
Sun 06:54:00 40.1652 153.3494 62° Northeast  Level Estimated
Sun 06:55:00 40.2505 153.5620 62° Northeast  Level Estimated
Sun 06:56:00 40.3355 153.7751 62° Northeast  Level Estimated
Sun 06:57:00 40.4200 153.9887 62° Northeast  Level Estimated
Sun 06:58:00 40.5042 154.2029 63° Northeast  Level Estimated
Sun 06:59:00 40.5879 154.4176 63° Northeast  Level Estimated
Sun 07:00:00 40.6713 154.6328 63° Northeast  Level Estimated
Sun 07:01:00 40.7543 154.8486 63° Northeast  Level Estimated
Sun 07:02:00 40.8368 155.0649 63° Northeast  Level Estimated
Sun 07:03:00 40.9190 155.2818 63° Northeast  Level Estimated
Sun 07:04:00 41.0007 155.4992 63° Northeast  Level Estimated
Sun 07:05:00 41.0821 155.7171 64° Northeast  Level Estimated
Sun 07:06:00 41.1630 155.9356 64° Northeast  Level Estimated
Sun 07:07:00 41.2435 156.1546 64° Northeast  Level Estimated
Sun 07:08:00 41.3236 156.3742 64° Northeast  Level Estimated
Sun 07:09:00 41.4033 156.5943 64° Northeast  Level Estimated
Sun 07:10:00 41.4826 156.8149 64° Northeast  Level Estimated
Sun 07:11:00 41.5614 157.0361 64° Northeast  Level Estimated
Sun 07:12:00 41.6398 157.2578 65° Northeast  Level Estimated
Sun 07:13:00 41.7178 157.4800 65° Northeast  Level Estimated
Sun 07:14:00 41.7954 157.7028 65° Northeast  Level Estimated
Sun 07:15:00 41.8725 157.9261 65° Northeast  Level Estimated
Sun 07:16:00 41.9492 158.1500 65° Northeast  Level Estimated
Sun 07:17:00 42.0254 158.3744 65° Northeast  Level Estimated
Sun 07:18:00 42.1012 158.5993 66° East  Level Estimated
Sun 07:19:00 42.1766 158.8248 66° East  Level Estimated
Sun 07:20:00 42.2515 159.0508 66° East  Level Estimated
Sun 07:21:00 42.3260 159.2774 66° East  Level Estimated
Sun 07:22:00 42.4001 159.5044 66° East  Level Estimated
Sun 07:23:00 42.4737 159.7321 66° East  Level Estimated
Sun 07:24:00 42.5468 159.9602 66° East  Level Estimated
Sun 07:25:00 42.6195 160.1889 67° East  Level Estimated
Sun 07:26:00 42.6917 160.4181 67° East  Level Estimated
Sun 07:27:00 42.7635 160.6479 67° East  Level Estimated
Sun 07:28:00 42.8348 160.8781 67° East  Level Estimated
Sun 07:29:00 42.9057 161.1090 67° East  Level Estimated
Sun 07:30:00 42.9761 161.3403 67° East  Level Estimated
Sun 07:31:00 43.0460 161.5722 68° East  Level Estimated
Sun 07:32:00 43.1154 161.8046 68° East  Level Estimated
Sun 07:33:00 43.1844 162.0375 68° East  Level Estimated
Sun 07:34:00 43.2529 162.2709 68° East  Level Estimated
Sun 07:35:00 43.3209 162.5049 68° East  Level Estimated
Sun 07:36:00 43.3885 162.7394 68° East  Level Estimated
Sun 07:37:00 43.4556 162.9744 68° East  Level Estimated
Sun 07:38:00 43.5221 163.2100 69° East  Level Estimated
Sun 07:39:00 43.5882 163.4460 69° East  Level Estimated
Sun 07:40:00 43.6539 163.6826 69° East  Level Estimated
Sun 07:41:00 43.7190 163.9197 69° East  Level Estimated
Sun 07:42:00 43.7836 164.1573 69° East  Level Estimated
Sun 07:43:00 43.8478 164.3954 69° East  Level Estimated
Sun 07:44:00 43.9114 164.6340 70° East  Level Estimated
Sun 07:45:00 43.9746 164.8732 70° East  Level Estimated
Sun 07:46:00 44.0372 165.1128 70° East  Level Estimated
Sun 07:47:00 44.0994 165.3530 70° East  Level Estimated
Sun 07:48:00 44.1610 165.5936 70° East  Level Estimated
Sun 07:49:00 44.2222 165.8347 70° East  Level Estimated
Sun 07:50:00 44.2828 166.0764 71° East  Level Estimated
Sun 07:51:00 44.3429 166.3185 71° East  Level Estimated
Sun 07:52:00 44.4025 166.5612 71° East  Level Estimated
Sun 07:53:00 44.4616 166.8043 71° East  Level Estimated
Sun 07:54:00 44.5202 167.0480 71° East  Level Estimated
Sun 07:55:00 44.5783 167.2921 71° East  Level Estimated
Sun 07:56:00 44.6358 167.5367 72° East  Level Estimated
Sun 07:57:00 44.6928 167.7818 72° East  Level Estimated
Sun 07:58:00 44.7493 168.0273 72° East  Level Estimated
Sun 07:59:00 44.8053 168.2733 72° East  Level Estimated
Sun 08:00:00 44.8607 168.5199 72° East  Level Estimated
Sun 08:01:00 44.9156 168.7669 72° East  Level Estimated
Sun 08:02:00 44.9700 169.0143 73° East  Level Estimated
Sun 08:03:00 45.0238 169.2623 73° East  Level Estimated
Sun 08:04:00 45.0771 169.5106 73° East  Level Estimated
Sun 08:05:00 45.1298 169.7595 73° East  Level Estimated
Sun 08:06:00 45.1820 170.0088 73° East  Level Estimated
Sun 08:07:00 45.2337 170.2586 74° East  Level Estimated
Sun 08:08:00 45.2848 170.5088 74° East  Level Estimated
Sun 08:09:00 45.3354 170.7595 74° East  Level Estimated
Sun 08:10:00 45.3854 171.0106 74° East  Level Estimated
Sun 08:11:00 45.4349 171.2621 74° East  Level Estimated
Sun 08:12:00 45.4838 171.5141 74° East  Level Estimated
Sun 08:13:00 45.5322 171.7666 75° East  Level Estimated
Sun 08:14:00 45.5800 172.0194 75° East  Level Estimated
Sun 08:15:00 45.6273 172.2727 75° East  Level Estimated
Sun 08:16:00 45.6740 172.5264 75° East  Level Estimated
Sun 08:17:00 45.7201 172.7806 75° East  Level Estimated
Sun 08:18:00 45.7657 173.0351 76° East  Level Estimated
Sun 08:19:00 45.8107 173.2901 76° East  Level Estimated
Sun 08:20:00 45.8551 173.5455 76° East  Level Estimated
Sun 08:21:00 45.8989 173.8013 76° East  Level Estimated
Sun 08:22:00 45.9422 174.0574 76° East  Level Estimated
Sun 08:23:00 45.9850 174.3140 76° East  Level Estimated
Sun 08:23:20 44.9833 169.9333 71° East 558 642 36,000  Level Oakland Oceanic (ODAPS)
Sun 08:23:41 45.0000 170.0000 70° East 565 650 36,000  Level Oakland Oceanic (ODAPS)
Sun 08:24:00 46.0271 174.5710 77° East  Level Estimated
Sun 08:25:00 46.0687 174.8284 77° East  Level Estimated
Sun 08:26:00 46.1096 175.0861 77° East  Level Estimated
Sun 08:27:00 46.1501 175.3443 77° East  Level Estimated
Sun 08:28:00 46.1899 175.6028 77° East  Level Estimated
Sun 08:29:00 45.2589 171.0506 71° East 565 650 36,000  Level FlightAware Transoceanic
Sun 08:30:00 45.3095 171.2619 71° East 565 650 36,000  Level FlightAware Transoceanic
Sun 08:31:00 45.3597 171.4735 71° East 565 650 36,000  Level FlightAware Transoceanic
Sun 08:32:00 45.4095 171.6855 72° East 565 650 36,000  Level FlightAware Transoceanic
Sun 08:33:00 45.4590 171.8979 72° East 565 650 36,000  Level FlightAware Transoceanic
Sun 08:34:00 45.5080 172.1106 72° East 565 650 36,000  Level FlightAware Transoceanic
Sun 08:35:00 45.5567 172.3238 72° East 565 650 36,000  Level FlightAware Transoceanic
Sun 08:36:00 45.6049 172.5372 72° East 565 650 36,000  Level FlightAware Transoceanic
Sun 08:37:00 45.6528 172.7511 72° East 565 650 36,000  Level FlightAware Transoceanic
Sun 08:37:12 45.6833 172.9000 72° East 568 654 36,000  Level Oakland Oceanic (ODAPS)
Sun 08:38:00 45.7002 172.9653 72° East 565 650 36,000  Level FlightAware Transoceanic
Sun 08:39:00 45.7473 173.1799 73° East 565 650 36,000  Level FlightAware Transoceanic
Sun 08:40:00 45.7939 173.3949 73° East 565 650 36,000  Level FlightAware Transoceanic
Sun 08:41:00 45.8402 173.6102 73° East 565 650 36,000  Level FlightAware Transoceanic
Sun 08:42:00 45.8860 173.8258 73° East 565 650 36,000  Level FlightAware Transoceanic
Sun 08:43:00 45.9634 174.2045 73° East 568 654 36,000  Level FlightAware Transoceanic
Sun 08:44:00 46.0086 174.4232 74° East 568 654 36,000  Level FlightAware Transoceanic
Sun 08:45:00 46.0534 174.6423 74° East 568 654 36,000  Level FlightAware Transoceanic
Sun 08:46:00 46.0978 174.8617 74° East 568 654 36,000  Level FlightAware Transoceanic
Sun 08:47:00 46.1417 175.0814 74° East 568 654 36,000  Level FlightAware Transoceanic
Sun 08:48:00 46.1853 175.3015 74° East 568 654 36,000  Level FlightAware Transoceanic
Sun 08:49:00 46.2284 175.5220 74° East 568 654 36,000  Level FlightAware Transoceanic
Sun 08:50:00 46.2711 175.7428 74° East 568 654 36,000  Level FlightAware Transoceanic
Sun 08:51:00 46.3134 175.9639 75° East 568 654 36,000  Level FlightAware Transoceanic
Sun 08:51:04 46.3167 175.9500 75° East 568 654 36,000  Level Oakland Oceanic (ODAPS)
Sun 08:52:00 46.3552 176.1854 75° East 568 654 36,000  Level FlightAware Transoceanic
Sun 08:53:00 46.3966 176.4072 75° East 568 654 36,000  Level FlightAware Transoceanic
Sun 08:54:00 46.4376 176.6293 75° East 568 654 36,000  Level FlightAware Transoceanic
Sun 08:55:00 46.4782 176.8518 75° East 568 654 36,000  Level FlightAware Transoceanic
Sun 08:56:00 46.5183 177.0746 75° East 568 654 36,000  Level FlightAware Transoceanic
Sun 08:57:00 46.5603 177.2885 76° East 568 654 36,000  Level FlightAware Transoceanic
Sun 08:58:00 46.5994 177.5128 76° East 568 654 36,000  Level FlightAware Transoceanic
Sun 08:59:00 46.6380 177.7373 76° East 568 654 36,000  Level FlightAware Transoceanic
Sun 09:00:00 46.6762 177.9622 76° East 568 654 36,000  Level FlightAware Transoceanic
Sun 09:01:00 46.7140 178.1874 76° East 568 654 36,000  Level FlightAware Transoceanic
Sun 09:02:00 46.7513 178.4129 77° East 568 654 36,000  Level FlightAware Transoceanic
Sun 09:03:00 46.7882 178.6387 77° East 568 654 36,000  Level FlightAware Transoceanic
Sun 09:04:00 46.8246 178.8649 77° East 568 654 36,000  Level FlightAware Transoceanic
Sun 09:04:56 46.8500 179.0500 77° East 567 652 36,000  Level Oakland Oceanic (ODAPS)
Sun 09:05:00 46.8605 179.0913 77° East 568 654 36,000  Level FlightAware Transoceanic
Sun 09:06:00 46.8961 179.3180 77° East 568 654 36,000  Level FlightAware Transoceanic
Sun 09:07:00 46.9312 179.5450 77° East 568 654 36,000  Level FlightAware Transoceanic
Sun 09:08:00 46.9658 179.7724 78° East 568 654 36,000  Level FlightAware Transoceanic
Sun 09:09:00 47.0000 -180.0000 78° East 568 654 36,000  Level FlightAware Transoceanic
Sun 09:09:12 47.0000 180.0000 78° East 568 654 36,000  Level Oakland Oceanic (ODAPS)
Sun 09:10:00 47.0323 -179.7775 78° East 568 654 36,000  Level FlightAware Transoceanic
Sun 09:11:00 47.0641 -179.5547 78° East 567 652 36,000  Level FlightAware Transoceanic
Sun 09:12:00 47.0955 -179.3317 78° East 567 652 36,000  Level FlightAware Transoceanic
Sun 09:13:00 47.1265 -179.1084 79° East 567 652 36,000  Level FlightAware Transoceanic
Sun 09:14:00 47.1570 -178.8848 79° East 567 652 36,000  Level FlightAware Transoceanic
Sun 09:15:00 47.1913 -178.6297 79° East 568 654 36,000  Level FlightAware Transoceanic
Sun 09:16:00 47.2216 -178.4004 79° East 568 654 36,000  Level FlightAware Transoceanic
Sun 09:17:00 47.2514 -178.1708 79° East 568 654 36,000  Level FlightAware Transoceanic
Sun 09:18:00 47.2808 -177.9410 79° East 568 654 36,000  Level FlightAware Transoceanic
Sun 09:18:48 47.3000 -177.8000 80° East 566 651 36,000  Level Oakland Oceanic (ODAPS)
Sun 09:19:00 47.3097 -177.7109 80° East 568 654 36,000  Level FlightAware Transoceanic
Sun 09:20:00 47.3381 -177.4805 80° East 568 654 36,000  Level FlightAware Transoceanic
Sun 09:21:00 47.3661 -177.2499 80° East 568 654 36,000  Level FlightAware Transoceanic
Sun 09:22:00 47.3936 -177.0191 80° East 568 654 36,000  Level FlightAware Transoceanic
Sun 09:23:00 47.4207 -176.7880 80° East 568 654 36,000  Level FlightAware Transoceanic
Sun 09:24:00 47.4473 -176.5567 80° East 568 654 36,000  Level FlightAware Transoceanic
Sun 09:25:00 47.4664 -176.3985 81° East 566 651 36,000  Level FlightAware Transoceanic
Sun 09:26:00 47.4925 -176.1641 81° East 566 651 36,000  Level FlightAware Transoceanic
Sun 09:27:00 47.5181 -175.9295 81° East 566 651 36,000  Level FlightAware Transoceanic
Sun 09:28:00 47.5432 -175.6946 81° East 566 651 36,000  Level FlightAware Transoceanic
Sun 09:29:00 47.5678 -175.4595 81° East 566 651 36,000  Level FlightAware Transoceanic
Sun 09:30:00 47.5919 -175.2242 81° East 566 651 36,000  Level FlightAware Transoceanic
Sun 09:31:00 47.6156 -174.9886 82° East 566 651 36,000  Level FlightAware Transoceanic
Sun 09:32:00 47.6388 -174.7529 82° East 566 651 36,000  Level FlightAware Transoceanic
Sun 09:32:41 47.6500 -174.6333 82° East 569 655 36,000  Level Oakland Oceanic (ODAPS)
Sun 09:33:00 47.6615 -174.5169 82° East 566 651 36,000  Level FlightAware Transoceanic
Sun 09:34:00 47.6837 -174.2808 82° East 566 651 36,000  Level FlightAware Transoceanic
Sun 09:35:00 47.7054 -174.0444 82° East 566 651 36,000  Level FlightAware Transoceanic
Sun 09:36:00 47.7267 -173.8079 82° East 566 651 36,000  Level FlightAware Transoceanic
Sun 09:37:00 47.7475 -173.5711 83° East 566 651 36,000  Level FlightAware Transoceanic
Sun 09:38:00 47.7602 -173.4203 83° East 569 655 36,000  Level FlightAware Transoceanic
Sun 09:39:00 47.7806 -173.1771 83° East 569 655 36,000  Level FlightAware Transoceanic
Sun 09:40:00 47.8006 -172.9337 83° East 569 655 36,000  Level FlightAware Transoceanic
Sun 09:41:00 47.8201 -172.6902 83° East 569 655 36,000  Level FlightAware Transoceanic
Sun 09:42:00 47.8390 -172.4464 83° East 569 655 36,000  Level FlightAware Transoceanic
Sun 09:43:00 47.8575 -172.2025 84° East 569 655 36,000  Level FlightAware Transoceanic
Sun 09:44:00 47.8754 -171.9584 84° East 569 655 36,000  Level FlightAware Transoceanic
Sun 09:45:00 47.8928 -171.7141 84° East 569 655 36,000  Level FlightAware Transoceanic
Sun 09:46:00 47.9096 -171.4697 84° East 569 655 36,000  Level FlightAware Transoceanic
Sun 09:46:33 47.9167 -171.4167 84° East 564 649 36,000  Level Oakland Oceanic (ODAPS)
Sun 09:47:00 47.9260 -171.2251 84° East 569 655 36,000  Level FlightAware Transoceanic
Sun 09:48:00 47.9418 -170.9804 85° East 569 655 36,000  Level FlightAware Transoceanic
Sun 09:49:00 47.9572 -170.7355 85° East 569 655 36,000  Level FlightAware Transoceanic
Sun 09:50:00 47.9720 -170.4905 85° East 569 655 36,000  Level FlightAware Transoceanic
Sun 09:51:00 47.9862 -170.2453 85° East 569 655 36,000  Level FlightAware Transoceanic
Sun 09:52:00 47.9892 -170.2027 85° East 564 649 36,000  Level FlightAware Transoceanic
Sun 09:52:44 48.0000 -170.0000 86° East 553 636 36,000  Level Oakland Oceanic (ODAPS)
Sun 09:53:00 48.0000 -170.0000 86° East 564 649 36,000  Level FlightAware Transoceanic
Sun 09:54:00 48.0096 -169.7733 86° East 564 649 36,000  Level FlightAware Transoceanic
Sun 09:55:00 48.0188 -169.5466 87° East 564 649 36,000  Level FlightAware Transoceanic
Sun 09:56:00 48.0276 -169.3197 87° East 564 649 36,000  Level FlightAware Transoceanic
Sun 09:57:00 48.0359 -169.0928 87° East 564 649 36,000  Level FlightAware Transoceanic
Sun 09:58:00 48.0437 -168.8658 87° East 564 649 36,000  Level FlightAware Transoceanic
Sun 09:59:00 48.0521 -168.6071 87° East 553 636 36,000  Level FlightAware Transoceanic
Sun 10:00:00 48.0592 -168.3747 87° East 553 636 36,000  Level FlightAware Transoceanic
Sun 10:00:25 48.0667 -168.2167 88° East 554 638 36,000  Level Oakland Oceanic (ODAPS)
Sun 10:01:00 48.0658 -168.1422 88° East 553 636 36,000  Level FlightAware Transoceanic
Sun 10:02:00 48.0719 -167.9097 88° East 553 636 36,000  Level FlightAware Transoceanic
Sun 10:03:00 48.0775 -167.6771 88° East 553 636 36,000  Level FlightAware Transoceanic
Sun 10:04:00 48.0827 -167.4445 88° East 553 636 36,000  Level FlightAware Transoceanic
Sun 10:05:00 48.0874 -167.2118 88° East 553 636 36,000  Level FlightAware Transoceanic
Sun 10:06:00 48.0963 -166.8472 89° East 554 638 36,000  Level FlightAware Transoceanic
Sun 10:07:00 48.0996 -166.6188 89° East 554 638 36,000  Level FlightAware Transoceanic
Sun 10:08:00 48.1025 -166.3904 89° East 554 638 36,000  Level FlightAware Transoceanic
Sun 10:09:00 48.1050 -166.1620 89° East 554 638 36,000  Level FlightAware Transoceanic
Sun 10:10:00 48.1070 -165.9335 89° East 554 638 36,000  Level FlightAware Transoceanic
Sun 10:11:00 48.1085 -165.7050 90° East 554 638 36,000  Level FlightAware Transoceanic
Sun 10:12:00 48.1096 -165.4766 90° East 554 638 36,000  Level FlightAware Transoceanic
Sun 10:13:00 48.1102 -165.2481 90° East 554 638 36,000  Level FlightAware Transoceanic
Sun 10:14:00 48.1104 -165.0196 90° East 554 638 36,000  Level FlightAware Transoceanic
Sun 10:14:21 48.1167 -165.0167 90° East 547 629 36,000  Level Oakland Oceanic (ODAPS)
Sun 10:15:00 48.1101 -164.7911 90° East 554 638 36,000  Level FlightAware Transoceanic
Sun 10:16:00 48.1094 -164.5626 90° East 554 638 36,000  Level FlightAware Transoceanic
Sun 10:17:00 48.1082 -164.3341 91° East 554 638 36,000  Level FlightAware Transoceanic
Sun 10:18:00 48.1066 -164.1057 91° East 554 638 36,000  Level FlightAware Transoceanic
Sun 10:19:00 48.1045 -163.8772 91° East 554 638 36,000  Level FlightAware Transoceanic
Sun 10:20:00 48.1065 -163.6465 91° East 547 629 36,000  Level FlightAware Transoceanic
Sun 10:21:00 48.1032 -163.4183 91° East 547 629 36,000  Level FlightAware Transoceanic
Sun 10:22:00 48.0995 -163.1900 91° East 547 629 36,000  Level FlightAware Transoceanic
Sun 10:23:00 48.0953 -162.9618 92° East 547 629 36,000  Level FlightAware Transoceanic
Sun 10:24:00 48.0907 -162.7336 92° East 547 629 36,000  Level FlightAware Transoceanic
Sun 10:25:00 48.0856 -162.5055 92° East 547 629 36,000  Level FlightAware Transoceanic
Sun 10:26:00 48.0801 -162.2774 92° East 547 629 36,000  Level FlightAware Transoceanic
Sun 10:27:00 48.0741 -162.0494 92° East 547 629 36,000  Level FlightAware Transoceanic
Sun 10:28:00 48.0677 -161.8214 93° East 547 629 36,000 845 Level FlightAware Transoceanic
Sun 10:28:11 48.0667 -161.9333 92° East 535 616 37,000  Climbing Oakland Oceanic (ODAPS)
Sun 10:29:00 48.0608 -161.5935 93° East 547 629 36,000 -550 Descending FlightAware Transoceanic
Sun 10:30:00 48.0535 -161.3656 93° East 547 629 36,000  Level FlightAware Transoceanic
Sun 10:31:00 48.0457 -161.1378 93° East 547 629 36,000  Level FlightAware Transoceanic
Sun 10:32:00 48.0374 -160.9101 93° East 547 629 36,000  Level FlightAware Transoceanic
Sun 10:33:00 48.0288 -160.6824 93° East 547 629 36,000 500 Level FlightAware Transoceanic
Sun 10:34:00 48.0258 -160.6439 93° East 535 616 37,000 500 Climbing FlightAware Transoceanic
Sun 10:35:00 48.0176 -160.4292 93° East 535 616 37,000  Level FlightAware Transoceanic
Sun 10:36:00 48.0090 -160.2146 94° East 535 616 37,000  Level FlightAware Transoceanic
Sun 10:37:00 48.0000 -160.0000 103° East 535 616 37,000  Level FlightAware Transoceanic
Sun 10:37:03 48.0000 -160.0000 103° East 538 619 37,000  Level Oakland Oceanic (ODAPS)
Sun 10:38:00 47.9674 -159.7844 103° East 535 616 37,000  Level FlightAware Transoceanic
Sun 10:39:00 47.9344 -159.5691 103° East 535 616 37,000  Level FlightAware Transoceanic
Sun 10:40:00 47.9011 -159.3540 103° East 535 616 37,000  Level FlightAware Transoceanic
Sun 10:41:00 47.8673 -159.1393 103° East 535 616 37,000  Level FlightAware Transoceanic
Sun 10:42:00 47.8331 -158.9248 103° East 535 616 37,000  Level FlightAware Transoceanic
Sun 10:42:02 47.8333 -158.9000 103° East 540 621 37,000  Level Oakland Oceanic (ODAPS)
Sun 10:43:00 47.7940 -158.6832 104° East 538 619 37,000  Level FlightAware Transoceanic
Sun 10:44:00 47.7583 -158.4648 104° East 538 619 37,000  Level FlightAware Transoceanic
Sun 10:45:00 47.7221 -158.2467 104° East 538 619 37,000  Level FlightAware Transoceanic
Sun 10:46:00 47.6855 -158.0288 104° East 538 619 37,000  Level FlightAware Transoceanic
Sun 10:47:00 47.6484 -157.8113 104° East 538 619 37,000  Level FlightAware Transoceanic
Sun 10:48:00 47.6143 -157.5924 104° East 540 621 37,000  Level FlightAware Transoceanic
Sun 10:49:00 47.5764 -157.3755 105° East 540 621 37,000  Level FlightAware Transoceanic
Sun 10:50:00 47.5381 -157.1590 105° East 540 621 37,000  Level FlightAware Transoceanic
Sun 10:51:00 47.4993 -156.9427 105° East 540 621 37,000  Level FlightAware Transoceanic
Sun 10:52:00 47.4601 -156.7268 105° East 540 621 37,000  Level FlightAware Transoceanic
Sun 10:53:00 47.4206 -156.5112 105° East 540 621 37,000  Level FlightAware Transoceanic
Sun 10:54:00 47.3806 -156.2960 105° East 540 621 37,000  Level FlightAware Transoceanic
Sun 10:55:00 47.3402 -156.0811 106° East 540 621 37,000  Level FlightAware Transoceanic
Sun 10:55:55 47.3167 -155.9333 106° East 534 615 37,000  Level Oakland Oceanic (ODAPS)
Sun 10:56:00 47.2995 -155.8665 106° East 540 621 37,000  Level FlightAware Transoceanic
Sun 10:57:00 47.2583 -155.6522 106° East 540 621 37,000  Level FlightAware Transoceanic
Sun 10:58:00 47.2167 -155.4383 106° East 540 621 37,000  Level FlightAware Transoceanic
Sun 10:59:00 47.1748 -155.2247 106° East 540 621 37,000  Level FlightAware Transoceanic
Sun 11:00:00 47.1324 -155.0114 106° East 540 621 37,000  Level FlightAware Transoceanic
Sun 11:01:00 47.0896 -154.7985 107° East 540 621 37,000  Level FlightAware Transoceanic
Sun 11:02:00 47.0696 -154.6823 107° East 534 615 37,000  Level FlightAware Transoceanic
Sun 11:03:00 47.0272 -154.4750 107° East 534 615 37,000  Level FlightAware Transoceanic
Sun 11:04:00 46.9843 -154.2680 107° East 534 615 37,000  Level FlightAware Transoceanic
Sun 11:05:00 46.9411 -154.0613 107° East 534 615 37,000  Level FlightAware Transoceanic
Sun 11:06:00 46.8975 -153.8549 107° East 534 615 37,000  Level FlightAware Transoceanic
Sun 11:07:00 46.8535 -153.6489 107° East 534 615 37,000  Level FlightAware Transoceanic
Sun 11:08:00 46.8092 -153.4432 108° East 534 615 37,000  Level FlightAware Transoceanic
Sun 11:09:00 46.7644 -153.2379 108° East 534 615 37,000  Level FlightAware Transoceanic
Sun 11:09:47 46.7167 -153.0667 108° East 536 617 37,000  Level Oakland Oceanic (ODAPS)
Sun 11:10:00 46.7194 -153.0329 108° East 534 615 37,000  Level FlightAware Transoceanic
Sun 11:11:00 46.6739 -152.8282 108° East 534 615 37,000  Level FlightAware Transoceanic
Sun 11:12:00 46.6281 -152.6239 108° East 534 615 37,000  Level FlightAware Transoceanic
Sun 11:13:00 46.5819 -152.4200 108° East 534 615 37,000  Level FlightAware Transoceanic
Sun 11:14:00 46.5354 -152.2163 108° East 534 615 37,000  Level FlightAware Transoceanic
Sun 11:15:00 46.4885 -152.0131 109° East 534 615 37,000  Level FlightAware Transoceanic
Sun 11:16:00 46.4398 -151.8304 108° East 536 617 37,000  Level FlightAware Transoceanic
Sun 11:17:00 46.3924 -151.6255 109° East 536 617 37,000  Level FlightAware Transoceanic
Sun 11:18:00 46.3446 -151.4211 109° East 536 617 37,000  Level FlightAware Transoceanic
Sun 11:19:00 46.2965 -151.2170 109° East 536 617 37,000  Level FlightAware Transoceanic
Sun 11:20:00 46.2480 -151.0132 109° East 536 617 37,000  Level FlightAware Transoceanic
Sun 11:21:00 46.1991 -150.8099 109° East 536 617 37,000  Level FlightAware Transoceanic
Sun 11:22:00 46.1499 -150.6069 109° East 536 617 37,000  Level FlightAware Transoceanic
Sun 11:23:00 46.1003 -150.4042 110° East 536 617 37,000  Level FlightAware Transoceanic
Sun 11:23:40 46.0667 -150.2500 111° Southeast 526 605 37,000  Level Oakland Oceanic (ODAPS)
Sun 11:24:00 46.0503 -150.2019 110° East 536 617 37,000  Level FlightAware Transoceanic
Sun 11:24:56 46.0000 -150.0000 102° East 518 596 37,000  Level Oakland Oceanic (ODAPS)
Sun 11:25:00 46.0000 -150.0000 102° East 536 617 37,000  Level FlightAware Transoceanic
Sun 11:26:00 45.9700 -149.8014 102° East 536 617 37,000  Level FlightAware Transoceanic
Sun 11:27:00 45.9396 -149.6031 102° East 536 617 37,000  Level FlightAware Transoceanic
Sun 11:28:00 45.9088 -149.4050 103° East 536 617 37,000  Level FlightAware Transoceanic
Sun 11:29:00 45.8778 -149.2070 103° East 536 617 37,000  Level FlightAware Transoceanic
Sun 11:30:00 45.8463 -149.0094 103° East 526 605 37,000  Level FlightAware Transoceanic
Sun 11:31:00 45.8108 -148.7887 103° East 518 596 37,000  Level FlightAware Transoceanic
Sun 11:32:00 45.7781 -148.5876 103° East 518 596 37,000  Level FlightAware Transoceanic
Sun 11:33:00 45.7449 -148.3868 103° East 518 596 37,000  Level FlightAware Transoceanic
Sun 11:34:00 45.7115 -148.1862 104° East 518 596 37,000  Level FlightAware Transoceanic
Sun 11:35:00 45.6776 -147.9858 104° East 518 596 37,000  Level FlightAware Transoceanic
Sun 11:36:00 45.6435 -147.7857 104° East 518 596 37,000  Level FlightAware Transoceanic
Sun 11:37:00 45.6090 -147.5858 104° East 518 596 37,000  Level FlightAware Transoceanic
Sun 11:37:31 45.5833 -147.4333 104° East 505 581 37,000  Level Oakland Oceanic (ODAPS)
Sun 11:38:00 45.5741 -147.3862 104° East 518 596 37,000  Level FlightAware Transoceanic
Sun 11:39:00 45.5389 -147.1868 104° East 518 596 37,000  Level FlightAware Transoceanic
Sun 11:40:00 45.5033 -146.9877 104° East 518 596 37,000  Level FlightAware Transoceanic
Sun 11:41:00 45.4674 -146.7888 105° East 518 596 37,000  Level FlightAware Transoceanic
Sun 11:42:00 45.4311 -146.5902 105° East 518 596 37,000  Level FlightAware Transoceanic
Sun 11:43:00 45.3770 -146.2929 105° East 505 581 37,000  Level FlightAware Transoceanic
Sun 11:44:00 45.3415 -146.1037 105° East 505 581 37,000  Level FlightAware Transoceanic
Sun 11:45:00 45.3057 -145.9147 105° East 505 581 37,000  Level FlightAware Transoceanic
Sun 11:46:00 45.2696 -145.7259 105° East 505 581 37,000  Level FlightAware Transoceanic
Sun 11:47:00 45.2331 -145.5374 105° East 505 581 37,000  Level FlightAware Transoceanic
Sun 11:48:00 45.1964 -145.3491 106° East 505 581 37,000  Level FlightAware Transoceanic
Sun 11:49:00 45.1594 -145.1610 106° East 505 581 37,000  Level FlightAware Transoceanic
Sun 11:50:00 45.1220 -144.9732 106° East 505 581 37,000  Level FlightAware Transoceanic
Sun 11:51:00 45.0843 -144.7857 106° East 505 581 37,000  Level FlightAware Transoceanic
Sun 11:51:25 45.0833 -144.7833 106° East 495 570 37,000  Level Oakland Oceanic (ODAPS)
Sun 11:52:00 45.0464 -144.5984 106° East 505 581 37,000  Level FlightAware Transoceanic
Sun 11:53:00 45.0081 -144.4113 106° East 505 581 37,000  Level FlightAware Transoceanic
Sun 11:54:00 44.9695 -144.2245 106° East 505 581 37,000  Level FlightAware Transoceanic
Sun 11:55:00 44.9306 -144.0379 106° East 505 581 37,000  Level FlightAware Transoceanic
Sun 11:56:00 44.8915 -143.8517 107° East 505 581 37,000  Level FlightAware Transoceanic
Sun 11:57:00 44.8512 -143.6638 107° East 495 570 37,000  Level FlightAware Transoceanic
Sun 11:58:00 44.8114 -143.4781 107° East 495 570 37,000  Level FlightAware Transoceanic
Sun 11:59:00 44.7714 -143.2927 107° East 495 570 37,000  Level FlightAware Transoceanic
Sun 12:00:00 44.7310 -143.1075 107° East 495 570 37,000  Level FlightAware Transoceanic
Sun 12:01:00 44.6904 -142.9226 107° East 495 570 37,000  Level FlightAware Transoceanic
Sun 12:02:00 44.6494 -142.7379 107° East 495 570 37,000  Level FlightAware Transoceanic
Sun 12:03:00 44.6082 -142.5535 108° East 495 570 37,000  Level FlightAware Transoceanic
Sun 12:04:00 44.5666 -142.3694 108° East 495 570 37,000  Level FlightAware Transoceanic
Sun 12:05:00 44.5248 -142.1855 108° East 495 570 37,000  Level FlightAware Transoceanic
Sun 12:05:15 44.5500 -142.2667 108° East 490 564 37,000  Level Oakland Oceanic (ODAPS)
Sun 12:06:00 44.4827 -142.0019 108° East 495 570 37,000  Level FlightAware Transoceanic
Sun 12:07:00 44.4402 -141.8186 108° East 495 570 37,000  Level FlightAware Transoceanic
Sun 12:08:00 44.3975 -141.6355 108° East 495 570 37,000  Level FlightAware Transoceanic
Sun 12:09:00 44.3545 -141.4527 108° East 495 570 37,000  Level FlightAware Transoceanic
Sun 12:10:00 44.3112 -141.2702 108° East 495 570 37,000  Level FlightAware Transoceanic
Sun 12:11:00 44.3017 -141.2152 109° East 490 564 37,000  Level FlightAware Transoceanic
Sun 12:12:00 44.2594 -141.0409 109° East 490 564 37,000  Level FlightAware Transoceanic
Sun 12:13:00 44.2168 -140.8668 109° East 490 564 37,000  Level FlightAware Transoceanic
Sun 12:14:00 44.1740 -140.6929 109° East 490 564 37,000  Level FlightAware Transoceanic
Sun 12:15:00 44.1309 -140.5193 109° East 490 564 37,000  Level FlightAware Transoceanic
Sun 12:16:00 44.0875 -140.3459 109° East 490 564 37,000  Level FlightAware Transoceanic
Sun 12:17:00 44.0439 -140.1728 109° East 490 564 37,000  Level FlightAware Transoceanic
Sun 12:17:58 44.0000 -140.0000 109° East 474 545 37,000  Level Oakland Oceanic (ODAPS)
Sun 12:18:00 44.0000 -140.0000 109° East 490 564 37,000  Level FlightAware Transoceanic
Sun 12:19:00 43.9574 -139.8256 109° East 490 564 37,000  Level FlightAware Transoceanic
Sun 12:19:08 43.9500 -139.8000 109° East 468 539 37,000  Level Oakland Oceanic (ODAPS)
Sun 12:20:00 43.9145 -139.6514 109° East 490 564 37,000  Level FlightAware Transoceanic
Sun 12:21:00 43.8713 -139.4775 109° East 490 564 37,000  Level FlightAware Transoceanic
Sun 12:22:00 43.8279 -139.3039 109° East 490 564 37,000  Level FlightAware Transoceanic
Sun 12:23:00 43.7842 -139.1305 109° East 490 564 37,000  Level FlightAware Transoceanic
Sun 12:24:00 43.7402 -138.9573 109° East 474 545 37,000  Level FlightAware Transoceanic
Sun 12:25:00 43.6936 -138.7789 110° East 468 539 37,000  Level FlightAware Transoceanic
Sun 12:26:00 43.6500 -138.6096 110° East 468 539 37,000  Level FlightAware Transoceanic
Sun 12:27:00 43.6061 -138.4405 110° East 468 539 37,000  Level FlightAware Transoceanic
Sun 12:28:00 43.5620 -138.2716 110° East 468 539 37,000  Level FlightAware Transoceanic
Sun 12:29:00 43.5176 -138.1030 110° East 468 539 37,000  Level FlightAware Transoceanic
Sun 12:30:00 43.4730 -137.9347 110° East 468 539 37,000  Level FlightAware Transoceanic
Sun 12:31:00 43.4282 -137.7666 110° East 468 539 37,000  Level FlightAware Transoceanic
Sun 12:32:00 43.3831 -137.5988 110° East 468 539 37,000  Level FlightAware Transoceanic
Sun 12:33:00 43.3377 -137.4312 110° East 468 539 37,000  Level FlightAware Transoceanic
Sun 12:33:00 43.3167 -137.3667 110° East 470 541 37,000  Level Oakland Oceanic (ODAPS)
Sun 12:34:00 43.2921 -137.2639 111° Southeast 468 539 37,000  Level FlightAware Transoceanic
Sun 12:35:00 43.2463 -137.0968 111° Southeast 468 539 37,000  Level FlightAware Transoceanic
Sun 12:36:00 43.2002 -136.9299 111° Southeast 468 539 37,000  Level FlightAware Transoceanic
Sun 12:37:00 43.1539 -136.7633 111° Southeast 468 539 37,000  Level FlightAware Transoceanic
Sun 12:38:00 43.1073 -136.5970 111° Southeast 468 539 37,000  Level FlightAware Transoceanic
Sun 12:39:00 43.0355 -136.3535 111° Southeast 470 541 37,000  Level FlightAware Transoceanic
Sun 12:40:00 42.9878 -136.1855 111° Southeast 470 541 37,000  Level FlightAware Transoceanic
Sun 12:41:00 42.9398 -136.0178 111° Southeast 470 541 37,000  Level FlightAware Transoceanic
Sun 12:42:00 42.8916 -135.8504 112° Southeast 470 541 37,000  Level FlightAware Transoceanic
Sun 12:43:00 42.8432 -135.6832 112° Southeast 470 541 37,000  Level FlightAware Transoceanic
Sun 12:44:00 42.7945 -135.5163 112° Southeast 470 541 37,000  Level FlightAware Transoceanic
Sun 12:45:00 42.7455 -135.3496 112° Southeast 470 541 37,000  Level FlightAware Transoceanic
Sun 12:46:00 42.6964 -135.1832 112° Southeast 470 541 37,000  Level FlightAware Transoceanic
Sun 12:46:53 42.6500 -135.0167 112° Southeast 467 537 37,000  Level Oakland Oceanic (ODAPS)
Sun 12:47:00 42.6469 -135.0171 112° Southeast 470 541 37,000  Level FlightAware Transoceanic
Sun 12:48:00 42.5973 -134.8513 112° Southeast 470 541 37,000  Level FlightAware Transoceanic
Sun 12:49:00 42.5474 -134.6857 112° Southeast 470 541 37,000  Level FlightAware Transoceanic
Sun 12:50:00 42.4972 -134.5204 112° Southeast 470 541 37,000  Level FlightAware Transoceanic
Sun 12:51:00 42.4469 -134.3553 113° Southeast 470 541 37,000  Level FlightAware Transoceanic
Sun 12:52:00 42.3963 -134.1905 113° Southeast 470 541 37,000  Level FlightAware Transoceanic
Sun 12:53:00 42.3479 -134.0256 113° Southeast 467 537 37,000  Level FlightAware Transoceanic
Sun 12:54:00 42.2967 -133.8613 113° Southeast 467 537 37,000  Level FlightAware Transoceanic
Sun 12:55:00 42.2453 -133.6973 113° Southeast 467 537 37,000  Level FlightAware Transoceanic
Sun 12:56:00 42.1936 -133.5336 113° Southeast 467 537 37,000  Level FlightAware Transoceanic
Sun 12:57:00 42.1418 -133.3702 113° Southeast 467 537 37,000  Level FlightAware Transoceanic
Sun 12:58:00 42.0896 -133.2070 113° Southeast 467 537 37,000  Level FlightAware Transoceanic
Sun 12:59:00 42.0373 -133.0441 113° Southeast 467 537 37,000  Level FlightAware Transoceanic
Sun 13:00:00 41.9847 -132.8814 114° Southeast 467 537 37,000  Level FlightAware Transoceanic
Sun 13:00:44 41.9667 -132.8000 114° Southeast 455 524 37,000  Level Oakland Oceanic (ODAPS)
Sun 13:01:00 41.9319 -132.7191 114° Southeast 467 537 37,000  Level FlightAware Transoceanic
Sun 13:02:00 41.8789 -132.5569 114° Southeast 467 537 37,000  Level FlightAware Transoceanic
Sun 13:03:00 41.8256 -132.3951 114° Southeast 467 537 37,000  Level FlightAware Transoceanic
Sun 13:04:00 41.7721 -132.2335 114° Southeast 467 537 37,000  Level FlightAware Transoceanic
Sun 13:05:00 41.7184 -132.0722 114° Southeast 467 537 37,000  Level FlightAware Transoceanic
Sun 13:06:00 41.7050 -132.0138 114° Southeast 455 524 37,000  Level FlightAware Transoceanic
Sun 13:07:00 41.6520 -131.8574 114° Southeast 455 524 37,000  Level FlightAware Transoceanic
Sun 13:08:00 41.5988 -131.7012 115° Southeast 455 524 37,000  Level FlightAware Transoceanic
Sun 13:09:00 41.5454 -131.5452 115° Southeast 455 524 37,000  Level FlightAware Transoceanic
Sun 13:10:00 41.4918 -131.3896 115° Southeast 455 524 37,000  Level FlightAware Transoceanic
Sun 13:11:00 41.4380 -131.2341 115° Southeast 455 524 37,000  Level FlightAware Transoceanic
Sun 13:12:00 41.3840 -131.0790 115° Southeast 455 524 37,000  Level FlightAware Transoceanic
Sun 13:13:00 41.3297 -130.9241 115° Southeast 455 524 37,000  Level FlightAware Transoceanic
Sun 13:14:00 41.2753 -130.7694 115° Southeast 455 524 37,000  Level FlightAware Transoceanic
Sun 13:14:37 41.2500 -130.7000 115° Southeast 437 503 37,000  Level Oakland Oceanic (ODAPS)
Sun 13:15:00 41.2206 -130.6150 115° Southeast 455 524 37,000  Level FlightAware Transoceanic
Sun 13:16:00 41.1658 -130.4609 115° Southeast 455 524 37,000  Level FlightAware Transoceanic
Sun 13:17:00 41.1107 -130.3070 115° Southeast 455 524 37,000  Level FlightAware Transoceanic
Sun 13:18:00 41.0555 -130.1534 116° Southeast 455 524 37,000  Level FlightAware Transoceanic
Sun 13:19:00 41.0000 -130.0000 106° East 455 524 37,000  Level FlightAware Transoceanic
Sun 13:19:26 41.0000 -130.0000 106° East 451 519 37,000  Level Oakland Oceanic (ODAPS)
Sun 13:20:00 40.9651 -129.8405 106° East 437 503 37,000  Level FlightAware Transoceanic
Sun 13:21:00 40.9300 -129.6813 106° East 437 503 37,000  Level FlightAware Transoceanic
Sun 13:22:00 40.8947 -129.5222 106° East 437 503 37,000  Level FlightAware Transoceanic
Sun 13:23:00 40.8591 -129.3632 107° East 437 503 37,000  Level FlightAware Transoceanic
Sun 13:24:00 40.8233 -129.2045 107° East 437 503 37,000  Level FlightAware Transoceanic
Sun 13:25:00 40.7874 -129.0459 107° East 451 519 37,000  Level FlightAware Transoceanic
Sun 13:26:00 40.7512 -128.8874 107° East 451 519 37,000  Level FlightAware Transoceanic
Sun 13:27:00 40.7147 -128.7292 107° East 451 519 37,000  Level FlightAware Transoceanic
Sun 13:28:00 40.6781 -128.5711 107° East 451 519 37,000  Level FlightAware Transoceanic
Sun 13:28:29 40.6667 -128.5500 107° East 467 537 37,000  Level Oakland Oceanic (ODAPS)
Sun 13:29:00 40.6413 -128.4132 107° East 451 519 37,000  Level FlightAware Transoceanic
Sun 13:30:00 40.6042 -128.2555 107° East 451 519 37,000  Level FlightAware Transoceanic
Sun 13:31:00 40.5669 -128.0979 107° East 451 519 37,000  Level FlightAware Transoceanic
Sun 13:32:00 40.5294 -127.9405 107° East 451 519 37,000  Level FlightAware Transoceanic
Sun 13:33:00 40.4917 -127.7833 108° East 451 519 37,000  Level FlightAware Transoceanic
Sun 13:34:00 40.4492 -127.6180 107° East 467 537 37,000  Level FlightAware Transoceanic
Sun 13:34:51 40.4222 -127.4933 113° Southeast 479 551 37,000  Level Oakland Center
Sun 13:35:00 40.4122 -127.4632 107° East 467 537 37,000  Level FlightAware Transoceanic
Sun 13:35:53 40.3811 -127.3267 108° East 479 551 37,000  Level Oakland Center
Sun 13:36:00 40.3750 -127.3086 108° East 467 537 37,000  Level FlightAware Transoceanic
Sun 13:36:54 40.3406 -127.1617 108° East 479 551 37,000  Level Oakland Center
Sun 13:37:00 40.3376 -127.1542 108° East 467 537 37,000  Level FlightAware Transoceanic
Sun 13:37:56 40.2886 -126.9644 109° East 478 550 37,000  Level Oakland Center
Sun 13:38:00 40.3000 -127.0000 112° Southeast 467 537 37,000  Level FlightAware Transoceanic
Sun 13:38:57 40.2319 -126.8086 115° Southeast 475 547 37,000  Level Oakland Center
Sun 13:39:00 40.2482 -126.8349 112° Southeast 467 537 37,000  Level FlightAware Transoceanic
Sun 13:39:59 40.1556 -126.6683 125° Southeast 473 544 37,000  Level Oakland Center
Sun 13:40:00 40.1961 -126.6700 113° Southeast 467 537 37,000  Level FlightAware Transoceanic
Sun 13:41:00 40.0819 -126.5258 124° Southeast 475 547 37,000  Level Oakland Center
Sun 13:42:02 40.0086 -126.3828 124° Southeast 476 548 37,000  Level Oakland Center
Sun 13:43:03 39.9342 -126.2392 124° Southeast 479 551 37,000  Level Oakland Center
Sun 13:48:36 39.5060 -125.4290 124° Southeast 470 541 37,000  Level FlightAware ADS-B
Sun 13:49:07 39.4710 -125.3640 125° Southeast 470 541 37,000  Level FlightAware ADS-B
Sun 13:49:41 39.4240 -125.2770 125° Southeast 469 540 37,000  Level FlightAware ADS-B
Sun 13:50:13 39.3840 -125.2020 125° Southeast 473 544 37,000  Level FlightAware ADS-B
Sun 13:50:46 39.3430 -125.1270 125° Southeast 467 537 37,000  Level FlightAware ADS-B
Sun 13:51:39 39.2850 -125.0160 124° Southeast 466 536 37,000  Level FlightAware ADS-B
Sun 13:52:17 39.2290 -124.9160 126° Southeast 467 537 37,000 -276 Level FlightAware ADS-B
Sun 13:53:06 39.1700 -124.8060 125° Southeast 460 529 36,600 -732 Descending FlightAware ADS-B
Sun 13:53:39 39.1290 -124.7320 126° Southeast 459 528 36,000 -1,099 Descending FlightAware ADS-B
Sun 13:54:17 39.0820 -124.6470 125° Southeast 463 533 35,300 -1,000 Descending FlightAware ADS-B
Sun 13:54:45 39.0490 -124.5860 125° Southeast 463 533 34,900 -1,043 Descending FlightAware ADS-B
Sun 13:55:26 38.9970 -124.4920 125° Southeast 467 537 34,100 -1,231 Descending FlightAware ADS-B
Sun 13:56:03 38.9500 -124.4060 125° Southeast 472 543 33,300 -1,183 Descending FlightAware ADS-B
Sun 13:56:37 38.9060 -124.3270 126° Southeast 475 547 32,700 -1,029 Descending FlightAware ADS-B
Sun 13:57:13 38.8620 -124.2470 125° Southeast 478 550 32,100 -1,000 Descending FlightAware ADS-B
Sun 13:57:49 38.8150 -124.1630 126° Southeast 479 551 31,500 -971 Descending FlightAware ADS-B
Sun 13:58:21 38.7740 -124.0890 125° Southeast 480 552 31,000 -971 Descending FlightAware ADS-B
Sun 13:58:57 38.7280 -124.0070 126° Southeast 482 555 30,400 -1,000 Descending FlightAware ADS-B
Sun 13:59:33 38.6800 -123.9210 126° Southeast 483 556 29,800 -828 Descending FlightAware ADS-B
Sun 13:59:55 38.6510 -123.8690 126° Southeast 479 551 29,600 -486 Descending FlightAware ADS-B
Sun 14:00:47 38.6010 -123.7800 126° Southeast 476 548 29,200 -638 Descending FlightAware ADS-B
Sun 14:01:29 38.5310 -123.6570 126° Southeast 467 537 28,600 -1,385 Descending FlightAware ADS-B
Sun 14:02:05 38.4860 -123.5770 126° Southeast 461 531 27,400 -2,053 Descending FlightAware ADS-B
Sun 14:02:45 38.4370 -123.4900 126° Southeast 451 519 26,000 -2,167 Descending FlightAware ADS-B
Sun 14:03:17 38.3980 -123.4220 126° Southeast 444 511 24,800 -2,118 Descending FlightAware ADS-B
Sun 14:03:19 38.3950 -123.4170 127° Southeast 445 512 24,800 -1,500 Level FlightAware ADS-B
Sun 14:04:17 38.3290 -123.3010 126° Southeast 433 498 23,300 -1,787 Descending FlightAware ADS-B
Sun 14:04:53 38.2870 -123.2270 126° Southeast 427 491 22,000 -2,090 Descending FlightAware ADS-B
Sun 14:05:46 38.2270 -123.1220 126° Southeast 415 478 20,200 -2,093 Descending FlightAware ADS-B
Sun 14:06:19 38.1880 -123.0550 127° Southeast 407 468 19,000 -2,087 Descending FlightAware ADS-B
Sun 14:06:55 38.1490 -122.9870 126° Southeast 400 460 17,800 -2,000 Descending FlightAware ADS-B
Sun 14:07:31 38.1100 -122.9200 126° Southeast 393 452 16,600 -2,000 Descending FlightAware ADS-B
Sun 14:08:07 38.0690 -122.8570 130° Southeast 380 437 15,400 -2,057 Descending FlightAware ADS-B
Sun 14:08:41 38.0230 -122.8060 139° Southeast 372 428 14,200 -2,091 Descending FlightAware ADS-B
Sun 14:09:13 37.9820 -122.7610 139° Southeast 368 423 13,100 -2,118 Descending FlightAware ADS-B
Sun 14:09:49 37.9350 -122.7110 140° Southeast 364 419 11,800 -1,833 Descending FlightAware ADS-B
Sun 14:10:25 37.8880 -122.6620 141° Southeast 364 419 10,900 -628 Descending FlightAware ADS-B
Sun 14:11:15 37.8300 -122.5990 139° Southeast 363 418 10,900  Level FlightAware ADS-B
Sun 14:11:54 37.7733 -122.5380 140° Southeast 363 418 10,900  Level FlightAware ADS-B
Sun 14:12:35 37.7210 -122.4820 140° Southeast 346 398 10,900  Level FlightAware ADS-B
Sun 14:13:16 37.6745 -122.4320 140° Southeast 304 350 10,900  Level FlightAware ADS-B
Sun 14:13:46 37.6438 -122.4000 140° Southeast 274 315 10,900  Level FlightAware ADS-B
Sun 14:14:06 37.6254 -122.3800 139° Southeast 256 295 10,900  Level FlightAware ADS-B
Sun 14:14:14 37.6175 -122.3730 145° Southeast 251 289 10,900  Level FlightAware ADS-B
Sun 14:14:53 37.5783 -122.3460 151° Southeast 247 284 10,900 -261 Level FlightAware ADS-B
Sun 14:15:23 37.5481 -122.3260 152° Southeast 241 277 10,600 -931 Descending FlightAware ADS-B
Sun 14:15:51 37.5211 -122.3080 152° Southeast 241 277 10,000 -1,125 Descending FlightAware ADS-B
Sun 14:16:11 37.5015 -122.2950 152° Southeast 239 275 9,700 -632 Descending FlightAware ADS-B
Sun 14:16:29 37.4833 -122.2840 154° Southeast 236 272 9,600 -621 Descending FlightAware ADS-B
Sun 14:16:40 37.4723 -122.2770 153° Southeast 235 270 9,400 -800 Descending FlightAware ADS-B
Sun 14:16:44 37.4682 -122.2750 159° South 234 269 9,400 -667 Level FlightAware ADS-B
Sun 14:16:49 37.4632 -122.2740 171° South 234 269 9,300 -500 Descending FlightAware ADS-B
Sun 14:16:56 37.4557 -122.2750 186° South 233 268 9,300 -500 Level FlightAware ADS-B
Sun 14:17:01 37.4503 -122.2770 196° South 233 268 9,200 -750 Descending FlightAware ADS-B
Sun 14:17:04 37.4474 -122.2790 209° Southwest 234 269 9,200  Level FlightAware ADS-B
Sun 14:17:08 37.4439 -122.2810 204° Southwest 235 270 9,200 -750 Level FlightAware ADS-B
Sun 14:17:12 37.4407 -122.2850 225° Southwest 235 270 9,100 -600 Descending FlightAware ADS-B
Sun 14:17:18 37.4365 -122.2910 229° Southwest 234 269 9,100  Level FlightAware ADS-B
Sun 14:17:21 37.4342 -122.2940 226° Southwest 232 267 9,100 -750 Level FlightAware ADS-B
Sun 14:17:26 37.4310 -122.3000 236° Southwest 230 265 9,000 -462 Descending FlightAware ADS-B
Sun 14:17:47 37.4192 -122.3230 237° Southwest 221 254 8,900 -154 Descending FlightAware ADS-B
Sun 14:18:05 37.4101 -122.3400 236° Southwest 202 232 8,900  Level FlightAware ADS-B
Sun 14:18:20 37.4025 -122.3550 237° Southwest 200 230 8,900  Level FlightAware ADS-B
Sun 14:18:36 37.3947 -122.3710 238° Southwest 200 230 8,900  Level FlightAware ADS-B
Sun 14:18:52 37.3866 -122.3860 236° Southwest 201 231 8,900  Level FlightAware ADS-B
Sun 14:19:07 37.3790 -122.4010 237° Southwest 201 231 8,900  Level FlightAware ADS-B
Sun 14:19:23 37.3710 -122.4170 238° Southwest 200 230 8,900 -188 Level FlightAware ADS-B
Sun 14:19:39 37.3629 -122.4330 238° Southwest 202 232 8,800 -375 Descending FlightAware ADS-B
Sun 14:19:55 37.3551 -122.4480 237° Southwest 200 230 8,700 -343 Descending FlightAware ADS-B
Sun 14:20:14 37.3455 -122.4670 238° Southwest 198 228 8,600 -429 Descending FlightAware ADS-B
Sun 14:20:23 37.3412 -122.4750 236° Southwest 199 229 8,500 -462 Descending FlightAware ADS-B
Sun 14:20:27 37.3391 -122.4790 237° Southwest 199 229 8,500 -857 Level FlightAware ADS-B
Sun 14:20:30 37.3373 -122.4820 233° Southwest 199 229 8,400 -857 Descending FlightAware ADS-B
Sun 14:20:41 37.3290 -122.4890 214° Southwest 197 227 8,300 -316 Descending FlightAware ADS-B
Sun 14:20:49 37.3215 -122.4910 192° South 198 228 8,300 -500 Level FlightAware ADS-B
Sun 14:20:53 37.3180 -122.4910 180° South 198 228 8,200 -750 Descending FlightAware ADS-B
Sun 14:20:57 37.3146 -122.4900 167° South 199 229 8,200  Level FlightAware ADS-B
Sun 14:21:00 37.3120 -122.4880 149° Southeast 200 230 8,200 -857 Level FlightAware ADS-B
Sun 14:21:04 37.3091 -122.4860 151° Southeast 202 232 8,100 -857 Descending FlightAware ADS-B
Sun 14:21:07 37.3063 -122.4840 150° Southeast 203 234 8,100  Level FlightAware ADS-B
Sun 14:21:11 37.3042 -122.4810 131° Southeast 204 235 8,100  Level FlightAware ADS-B
Sun 14:21:15 37.3020 -122.4770 125° Southeast 205 236 8,100 -857 Level FlightAware ADS-B
Sun 14:21:18 37.3005 -122.4730 115° Southeast 206 237 8,000 -857 Descending FlightAware ADS-B
Sun 14:21:22 37.2990 -122.4690 115° Southeast 206 237 8,000 -316 Level FlightAware ADS-B
Sun 14:21:37 37.2936 -122.4530 113° Southeast 204 235 7,900 -200 Descending FlightAware ADS-B
Sun 14:21:52 37.2883 -122.4360 111° Southeast 205 236 7,900  Level FlightAware ADS-B
Sun 14:22:08 37.2828 -122.4190 112° Southeast 205 236 7,900  Level FlightAware ADS-B
Sun 14:22:23 37.2772 -122.4010 111° Southeast 206 237 7,900  Level FlightAware ADS-B
Sun 14:22:39 37.2718 -122.3840 112° Southeast 206 237 7,900  Level FlightAware ADS-B
Sun 14:22:55 37.2659 -122.3660 112° Southeast 207 238 7,900  Level FlightAware ADS-B
Sun 14:23:10 37.2606 -122.3490 111° Southeast 207 238 7,900  Level FlightAware ADS-B
Sun 14:23:26 37.2550 -122.3320 112° Southeast 207 238 7,900  Level FlightAware ADS-B
Sun 14:23:42 37.2494 -122.3140 111° Southeast 205 236 7,900  Level FlightAware ADS-B
Sun 14:23:56 37.2443 -122.2990 113° Southeast 205 236 7,900  Level FlightAware ADS-B
Sun 14:24:00 37.2429 -122.2940 109° East 205 236 7,900  Level FlightAware ADS-B
Sun 14:24:04 37.2419 -122.2890 104° East 205 236 7,900  Level FlightAware ADS-B
Sun 14:24:11 37.2415 -122.2810 94° East 207 238 7,900  Level FlightAware ADS-B
Sun 14:24:15 37.2420 -122.2770 81° East 210 242 7,900  Level FlightAware ADS-B
Sun 14:24:18 37.2430 -122.2720 76° East 212 244 7,900  Level FlightAware ADS-B
Sun 14:24:24 37.2453 -122.2660 64° Northeast 214 246 7,900  Level FlightAware ADS-B
Sun 14:24:29 37.2488 -122.2610 49° Northeast 217 250 7,900  Level FlightAware ADS-B
Sun 14:24:33 37.2517 -122.2580 39° Northeast 218 251 7,900  Level FlightAware ADS-B
Sun 14:24:46 37.2626 -122.2480 36° Northeast 219 252 7,900  Level FlightAware ADS-B
Sun 14:25:00 37.2741 -122.2390 32° Northeast 219 252 7,900 -194 Level FlightAware ADS-B
Sun 14:25:17 37.2884 -122.2270 34° Northeast 217 250 7,800 -750 Descending FlightAware ADS-B
Sun 14:25:32 37.3011 -122.2160 35° Northeast 216 249 7,500 -1,000 Descending FlightAware ADS-B
Sun 14:25:47 37.3139 -122.2060 32° Northeast 216 249 7,300 -968 Descending FlightAware ADS-B
Sun 14:26:03 37.3267 -122.1950 34° Northeast 214 246 7,000 -1,161 Descending FlightAware ADS-B
Sun 14:26:18 37.3391 -122.1850 33° Northeast 214 246 6,700 -1,111 Descending FlightAware ADS-B
Sun 14:26:30 37.3490 -122.1770 33° Northeast 212 244 6,500 -1,071 Descending FlightAware ADS-B
Sun 14:26:46 37.3621 -122.1660 34° Northeast 211 243 6,200 -1,091 Descending FlightAware ADS-B
Sun 14:27:03 37.3760 -122.1540 34° Northeast 210 242 5,900 -1,125 Descending FlightAware ADS-B
Sun 14:27:18 37.3883 -122.1440 33° Northeast 209 241 5,600 -968 Descending FlightAware ADS-B
Sun 14:27:34 37.4007 -122.1340 33° Northeast 208 239 5,400 -968 Descending FlightAware ADS-B
Sun 14:27:49 37.4129 -122.1230 36° Northeast 206 237 5,100 -1,161 Descending FlightAware ADS-B
Sun 14:28:05 37.4255 -122.1130 32° Northeast 204 235 4,800 -1,050 Descending FlightAware ADS-B
Sun 14:28:29 37.4447 -122.0990 30° Northeast 204 235 4,400 -968 Descending FlightAware ADS-B
Sun 14:28:36 37.4509 -122.0980 North 198 228 4,300 -750 Descending FlightAware ADS-B
Sun 14:28:45 37.4594 -122.1010 344° North 194 223 4,200 -857 Descending FlightAware ADS-B
Sun 14:28:50 37.4634 -122.1040 329° Northwest 194 223 4,100 -1,143 Descending FlightAware ADS-B
Sun 14:29:06 37.4756 -122.1140 327° Northwest 196 226 3,800 -1,000 Descending FlightAware ADS-B
Sun 14:29:26 37.4901 -122.1270 325° Northwest 198 228 3,500 -811 Descending FlightAware ADS-B
Sun 14:29:43 37.5032 -122.1380 326° Northwest 197 227 3,300 -750 Descending FlightAware ADS-B
Sun 14:29:50 37.5079 -122.1430 320° Northwest 196 226 3,200 -429 Descending FlightAware ADS-B
Sun 14:29:57 37.5123 -122.1480 318° Northwest 197 227 3,200 -353 Level FlightAware ADS-B
Sun 14:30:07 37.5185 -122.1570 311° West 197 227 3,100 -571 Descending FlightAware ADS-B
Sun 14:30:18 37.5254 -122.1660 314° West 193 222 3,000 -462 Descending FlightAware ADS-B
Sun 14:30:33 37.5346 -122.1790 312° West 188 216 2,900 -545 Descending FlightAware ADS-B
Sun 14:30:40 37.5384 -122.1850 309° West 188 216 2,800 -923 Descending FlightAware ADS-B
Sun 14:30:46 37.5415 -122.1900 308° West 188 216 2,700 -923 Descending FlightAware ADS-B
Sun 14:30:53 37.5447 -122.1960 304° West 186 214 2,600 -818 Descending FlightAware ADS-B
Sun 14:31:08 37.5513 -122.2100 301° West 185 213 2,400 -774 Descending FlightAware ADS-B
Sun 14:31:24 37.5577 -122.2240 300° West 183 211 2,200 -774 Descending FlightAware ADS-B
Sun 14:31:39 37.5638 -122.2380 299° West 182 209 2,000 -750 Descending FlightAware ADS-B
Sun 14:31:48 37.5676 -122.2470 298° West 178 205 1,900 -857 Descending FlightAware ADS-B
Sun 14:32:00 37.5720 -122.2580 297° West 168 193 1,700 -857 Descending FlightAware ADS-B
Sun 14:32:16 37.5774 -122.2710 298° West 162 186 1,500 -800 Descending FlightAware ADS-B
Sun 14:32:30 37.5823 -122.2830 297° West 149 171 1,300 -800 Descending FlightAware ADS-B
Sun 14:32:46 37.5870 -122.2940 298° West 143 165 1,100 -774 Descending FlightAware ADS-B
Sun 14:33:01 37.5916 -122.3050 298° West 141 162 900 -750 Descending FlightAware ADS-B
Sun 14:33:18 37.5969 -122.3180 297° West 139 160 700 -800 Descending FlightAware ADS-B
Sun 14:33:31 37.6005 -122.3260 300° West 136 157 500 -800 Descending FlightAware ADS-B
Sun 14:33:48 37.6056 -122.3380 298° West 132 152 300 -750 Descending FlightAware ADS-B
Sun 14:34:03 37.6099 -122.3490 296° West 129 148 100 -800 Descending FlightAware ADS-B
Sun 14:34:11 37.6121 -122.3540 299° West 129 148 -750 Descending FlightAware ADS-B
Sun 14:34:30 37.6173 -122.3660 299° West 115 132  Level FlightAware ADS-B

Login

Don't have an account? Register now (free) for customized features, flight alerts, and more!